Time;durP1;ratioP1;P1;durP2;ratioP2;P2;SDS_P1;SDS_P2;PMS_P1;PMS_P2;Temp;Humidity;BMP_temperature;BMP_pressure;BME280_temperature;BME280_humidity;BME280_pressure;Samples;Min_cycle;Max_cycle;Signal;HPM_P1;HPM_P2
2024/03/09 00:00:40;;;;;;;51.90;33.17;;;;;;;;;;5015917;28;25060;-64
2024/03/09 00:03:07;;;;;;;48.28;30.92;;;;;;;;;;5022133;28;25069;-63
2024/03/09 00:05:33;;;;;;;51.08;31.23;;;;;;;;;;5020006;28;25065;-64
2024/03/09 00:08:01;;;;;;;48.28;30.88;;;;;;;;;;5023723;28;25057;-64
2024/03/09 00:10:28;;;;;;;48.63;30.30;;;;;;;;;;5023058;28;25070;-61
2024/03/09 00:12:54;;;;;;;50.00;31.85;;;;;;;;;;5025356;28;25057;-62
2024/03/09 00:15:23;;;;;;;48.60;30.95;;;;;;;;;;5016833;28;25065;-61
2024/03/09 00:17:49;;;;;;;48.05;31.48;;;;;;;;;;5021317;28;25120;-61
2024/03/09 00:20:19;;;;;;;48.45;32.72;;;;;;;;;;5021335;28;25128;-63
2024/03/09 00:22:45;;;;;;;52.15;33.10;;;;;;;;;;5015641;28;25058;-62
2024/03/09 00:25:11;;;;;;;50.00;32.13;;;;;;;;;;5020770;28;25081;-62
2024/03/09 00:27:41;;;;;;;52.90;33.88;;;;;;;;;;5017459;28;25084;-62
2024/03/09 00:30:20;;;;;;;51.13;33.15;;;;;;;;;;5023021;28;25059;-62
2024/03/09 00:32:48;;;;;;;50.88;32.85;;;;;;;;;;5022488;28;25066;-61
2024/03/09 00:35:14;;;;;;;51.03;33.08;;;;;;;;;;5023466;28;25068;-62
2024/03/09 00:37:40;;;;;;;49.33;32.90;;;;;;;;;;5019881;28;25059;-63
2024/03/09 00:40:08;;;;;;;60.92;35.83;;;;;;;;;;5027981;28;25109;-63
2024/03/09 00:42:41;;;;;;;54.92;35.67;;;;;;;;;;5021465;28;25064;-61
2024/03/09 00:45:08;;;;;;;55.45;33.97;;;;;;;;;;5022490;28;25137;-62
2024/03/09 00:47:35;;;;;;;48.70;32.15;;;;;;;;;;5023270;28;25078;-62
2024/03/09 00:50:02;;;;;;;52.83;32.78;;;;;;;;;;5018503;28;25072;-62
2024/03/09 00:52:28;;;;;;;59.75;36.10;;;;;;;;;;5016664;28;25055;-63
2024/03/09 00:54:54;;;;;;;55.90;34.72;;;;;;;;;;5022272;28;25128;-62
2024/03/09 00:57:20;;;;;;;54.72;34.85;;;;;;;;;;5019462;28;25051;-62
2024/03/09 00:59:47;;;;;;;59.47;34.95;;;;;;;;;;5025398;28;25069;-64
2024/03/09 01:02:13;;;;;;;52.65;33.28;;;;;;;;;;5015052;28;25064;-62
2024/03/09 01:04:39;;;;;;;57.25;33.83;;;;;;;;;;5022805;28;25059;-63
2024/03/09 01:07:05;;;;;;;55.55;36.25;;;;;;;;;;5013377;28;25070;-62
2024/03/09 01:09:31;;;;;;;57.85;35.80;;;;;;;;;;5010565;28;25153;-63
2024/03/09 01:11:57;;;;;;;58.55;35.13;;;;;;;;;;5031985;28;25059;-61
2024/03/09 01:14:23;;;;;;;63.45;36.53;;;;;;;;;;5013665;28;25074;-62
2024/03/09 01:16:50;;;;;;;51.28;33.90;;;;;;;;;;5018164;28;25081;-62
2024/03/09 01:19:18;;;;;;;59.35;37.47;;;;;;;;;;5018013;28;25123;-63
2024/03/09 01:21:46;;;;;;;54.97;33.90;;;;;;;;;;5015543;28;25098;-62
2024/03/09 01:24:12;;;;;;;57.10;36.05;;;;;;;;;;5019701;28;25072;-64
2024/03/09 01:26:38;;;;;;;56.63;34.45;;;;;;;;;;5016018;28;25134;-62
2024/03/09 01:29:04;;;;;;;57.03;36.03;;;;;;;;;;5020274;28;25091;-63
2024/03/09 01:31:31;;;;;;;60.03;37.03;;;;;;;;;;5016734;28;25133;-64
2024/03/09 01:34:00;;;;;;;60.10;36.20;;;;;;;;;;5013043;28;25057;-61
2024/03/09 01:36:27;;;;;;;58.10;35.95;;;;;;;;;;5026760;28;25112;-63
2024/03/09 01:38:53;;;;;;;55.20;33.63;;;;;;;;;;5034018;28;25063;-62
2024/03/09 01:41:22;;;;;;;58.63;36.78;;;;;;;;;;5033645;28;25055;-61
2024/03/09 01:43:48;;;;;;;57.33;35.72;;;;;;;;;;5017884;28;25072;-62
2024/03/09 01:46:15;;;;;;;56.28;35.55;;;;;;;;;;5025147;28;25097;-61
2024/03/09 01:48:44;;;;;;;54.80;33.83;;;;;;;;;;5020842;28;25085;-65
2024/03/09 01:51:10;;;;;;;59.35;36.15;;;;;;;;;;5022172;28;25145;-64
2024/03/09 01:53:39;;;;;;;53.97;34.85;;;;;;;;;;5014198;28;25122;-64
2024/03/09 01:56:11;;;;;;;58.78;35.72;;;;;;;;;;5018867;28;25111;-65
2024/03/09 01:58:39;;;;;;;60.97;36.50;;;;;;;;;;5021691;28;25066;-66
2024/03/09 02:01:19;;;;;;;57.20;35.85;;;;;;;;;;5018520;28;25079;-65
2024/03/09 02:03:45;;;;;;;49.78;34.28;;;;;;;;;;5020649;28;25090;-66
2024/03/09 02:06:11;;;;;;;51.75;34.10;;;;;;;;;;5019510;28;25068;-64
2024/03/09 02:08:39;;;;;;;58.63;36.53;;;;;;;;;;5021519;28;25118;-65
2024/03/09 02:11:07;;;;;;;60.17;35.30;;;;;;;;;;5019464;28;25066;-64
2024/03/09 02:13:33;;;;;;;57.80;34.90;;;;;;;;;;5017763;28;25171;-63
2024/03/09 02:15:59;;;;;;;60.95;35.72;;;;;;;;;;5020631;28;25060;-64
2024/03/09 02:18:25;;;;;;;59.97;34.70;;;;;;;;;;5019425;28;25092;-64
2024/03/09 02:20:51;;;;;;;55.50;33.92;;;;;;;;;;5023401;28;25056;-64
2024/03/09 02:23:20;;;;;;;57.55;33.60;;;;;;;;;;5014691;28;25061;-65
2024/03/09 02:25:46;;;;;;;54.83;35.90;;;;;;;;;;5024070;28;25123;-65
2024/03/09 02:28:12;;;;;;;56.17;34.78;;;;;;;;;;5025146;28;25060;-65
2024/03/09 02:30:38;;;;;;;56.15;33.67;;;;;;;;;;5025123;28;25047;-65
2024/03/09 02:33:08;;;;;;;57.05;35.00;;;;;;;;;;5024906;28;25059;-66
2024/03/09 02:35:34;;;;;;;54.83;32.78;;;;;;;;;;5018047;28;25073;-66
2024/03/09 02:38:00;;;;;;;59.03;35.45;;;;;;;;;;5016829;28;25078;-63
2024/03/09 02:40:26;;;;;;;63.53;35.38;;;;;;;;;;5020843;28;25057;-64
2024/03/09 02:43:07;;;;;;;57.83;35.80;;;;;;;;;;5021706;28;25085;-63
2024/03/09 02:45:34;;;;;;;53.93;33.57;;;;;;;;;;5018621;28;25049;-64
2024/03/09 02:48:00;;;;;;;54.97;34.03;;;;;;;;;;5021195;28;25148;-65
2024/03/09 02:50:26;;;;;;;55.05;32.47;;;;;;;;;;5022478;28;25126;-66
2024/03/09 02:52:53;;;;;;;59.53;35.13;;;;;;;;;;5022998;28;25145;-64
2024/03/09 02:55:19;;;;;;;54.72;34.20;;;;;;;;;;5022798;28;25078;-64
2024/03/09 02:57:46;;;;;;;54.75;35.15;;;;;;;;;;5016672;28;25064;-65
2024/03/09 03:00:13;;;;;;;57.95;36.42;;;;;;;;;;5022357;28;25167;-64
2024/03/09 03:05:24;;;;;;;58.22;35.63;;;;;;;;;;5022008;28;25066;-66
2024/03/09 03:07:50;;;;;;;56.03;35.00;;;;;;;;;;5019179;28;25046;-65
2024/03/09 03:10:16;;;;;;;60.08;35.03;;;;;;;;;;5021449;28;25013;-63
2024/03/09 03:12:42;;;;;;;52.78;32.55;;;;;;;;;;5014178;28;25046;-65
2024/03/09 03:15:10;;;;;;;52.47;33.72;;;;;;;;;;5019203;28;25068;-65
2024/03/09 03:17:36;;;;;;;56.45;35.03;;;;;;;;;;5019409;28;25054;-65
2024/03/09 03:20:04;;;;;;;57.38;35.35;;;;;;;;;;5021958;28;25107;-63
2024/03/09 03:22:30;;;;;;;54.58;33.67;;;;;;;;;;5018674;28;25054;-65
2024/03/09 03:24:56;;;;;;;55.42;35.20;;;;;;;;;;5026055;28;25062;-64
2024/03/09 03:27:22;;;;;;;61.88;34.65;;;;;;;;;;5023512;28;25052;-65
2024/03/09 03:29:48;;;;;;;55.35;34.10;;;;;;;;;;5023264;28;25102;-67
2024/03/09 03:32:17;;;;;;;58.03;35.22;;;;;;;;;;5018811;28;25088;-63
2024/03/09 03:34:43;;;;;;;56.58;33.13;;;;;;;;;;5033366;28;25087;-64
2024/03/09 03:37:10;;;;;;;53.17;31.88;;;;;;;;;;5014083;28;25072;-64
2024/03/09 03:39:38;;;;;;;56.83;32.72;;;;;;;;;;5014084;28;25087;-64
2024/03/09 03:42:04;;;;;;;50.58;32.50;;;;;;;;;;5002772;28;25051;-63
2024/03/09 03:44:34;;;;;;;56.72;34.30;;;;;;;;;;4991451;28;25083;-63
2024/03/09 03:47:00;;;;;;;52.47;33.85;;;;;;;;;;5004395;28;25134;-63
2024/03/09 03:49:27;;;;;;;56.17;33.05;;;;;;;;;;5004622;28;25114;-63
2024/03/09 03:51:55;;;;;;;50.35;31.27;;;;;;;;;;5005849;28;25057;-64
2024/03/09 03:54:22;;;;;;;50.33;32.03;;;;;;;;;;5009228;28;25077;-65
2024/03/09 03:56:48;;;;;;;58.88;33.63;;;;;;;;;;4998115;28;25153;-65
2024/03/09 03:59:14;;;;;;;50.35;32.22;;;;;;;;;;4997686;28;25073;-67
2024/03/09 04:01:40;;;;;;;53.08;33.13;;;;;;;;;;4996160;28;25077;-65
2024/03/09 04:04:06;;;;;;;49.47;30.98;;;;;;;;;;4994672;28;25102;-65
2024/03/09 04:06:33;;;;;;;53.08;33.88;;;;;;;;;;5000178;28;25085;-66
2024/03/09 04:08:59;;;;;;;51.63;31.63;;;;;;;;;;5000534;28;25159;-65
2024/03/09 04:11:33;;;;;;;54.75;33.38;;;;;;;;;;4996389;28;25102;-67
2024/03/09 04:13:59;;;;;;;57.22;32.05;;;;;;;;;;4997833;28;25063;-67
2024/03/09 04:16:25;;;;;;;52.70;33.85;;;;;;;;;;4995531;28;25150;-65
2024/03/09 04:18:51;;;;;;;53.67;32.05;;;;;;;;;;4992224;28;25090;-64
2024/03/09 04:21:18;;;;;;;51.38;32.00;;;;;;;;;;4997235;28;25093;-66
2024/03/09 04:23:45;;;;;;;50.58;32.28;;;;;;;;;;4994947;28;25156;-64
2024/03/09 04:26:11;;;;;;;47.92;30.77;;;;;;;;;;5003642;28;25124;-64
2024/03/09 04:28:37;;;;;;;51.03;32.65;;;;;;;;;;5002375;28;25054;-68
2024/03/09 04:31:06;;;;;;;54.63;31.67;;;;;;;;;;5000069;28;25053;-64
2024/03/09 04:33:33;;;;;;;50.90;31.13;;;;;;;;;;4993392;28;25142;-64
2024/03/09 04:35:59;;;;;;;56.30;33.03;;;;;;;;;;4995949;28;25125;-64
2024/03/09 04:38:30;;;;;;;50.40;29.95;;;;;;;;;;5003588;28;25070;-65
2024/03/09 04:40:56;;;;;;;48.38;31.20;;;;;;;;;;4989594;28;25076;-65
2024/03/09 04:43:22;;;;;;;53.15;31.52;;;;;;;;;;4996745;28;25060;-65
2024/03/09 04:45:50;;;;;;;54.10;32.38;;;;;;;;;;4995376;28;25058;-65
2024/03/09 04:48:16;;;;;;;49.78;30.75;;;;;;;;;;4995559;28;25062;-64
2024/03/09 04:50:46;;;;;;;53.28;32.38;;;;;;;;;;4998464;28;25085;-64
2024/03/09 04:53:12;;;;;;;52.55;32.85;;;;;;;;;;5000634;28;25058;-65
2024/03/09 04:55:41;;;;;;;52.58;31.77;;;;;;;;;;5002131;28;25073;-64
2024/03/09 04:58:17;;;;;;;53.78;30.60;;;;;;;;;;5002762;28;25066;-65
2024/03/09 05:00:44;;;;;;;48.42;29.85;;;;;;;;;;5002622;28;25104;-64
2024/03/09 05:03:13;;;;;;;45.60;30.10;;;;;;;;;;5002214;28;25069;-66
2024/03/09 05:05:40;;;;;;;50.63;31.73;;;;;;;;;;4994505;28;25125;-64
2024/03/09 05:08:06;;;;;;;47.60;29.63;;;;;;;;;;4994094;28;25065;-62
2024/03/09 05:10:32;;;;;;;49.13;31.95;;;;;;;;;;5001544;28;25070;-64
2024/03/09 05:13:00;;;;;;;48.17;30.75;;;;;;;;;;4996189;28;25044;-65
2024/03/09 05:15:30;;;;;;;48.92;29.92;;;;;;;;;;4999374;28;25047;-64
2024/03/09 05:17:56;;;;;;;51.78;30.92;;;;;;;;;;4993713;28;25137;-66
2024/03/09 05:20:23;;;;;;;46.15;30.17;;;;;;;;;;4998525;28;25048;-65
2024/03/09 05:22:57;;;;;;;52.13;30.42;;;;;;;;;;5003654;28;25057;-64
2024/03/09 05:25:23;;;;;;;48.65;29.63;;;;;;;;;;5000418;28;25068;-66
2024/03/09 05:27:50;;;;;;;47.78;28.75;;;;;;;;;;4996177;28;25062;-65
2024/03/09 05:30:18;;;;;;;47.67;31.23;;;;;;;;;;5007335;28;25054;-65
2024/03/09 05:32:53;;;;;;;43.25;28.13;;;;;;;;;;5007910;28;25086;-66
2024/03/09 05:35:26;;;;;;;52.00;31.27;;;;;;;;;;5011685;28;25065;-65
2024/03/09 05:37:52;;;;;;;;;;;;;;;;;;5008085;28;25082;-66
2024/03/09 05:40:18;;;;;;;44.08;28.90;;;;;;;;;;4996224;28;24110;-65
2024/03/09 05:42:44;;;;;;;51.40;31.00;;;;;;;;;;5001590;28;25130;-65
2024/03/09 05:45:32;;;;;;;49.55;29.73;;;;;;;;;;4993761;28;25063;-64
2024/03/09 05:47:58;;;;;;;46.22;29.25;;;;;;;;;;4994356;28;25087;-65
2024/03/09 05:50:32;;;;;;;42.53;28.08;;;;;;;;;;5001374;28;25071;-64
2024/03/09 05:52:59;;;;;;;42.75;27.33;;;;;;;;;;4990950;28;25148;-64
2024/03/09 05:55:25;;;;;;;45.30;28.60;;;;;;;;;;4998470;28;25061;-65
2024/03/09 05:57:52;;;;;;;48.13;29.73;;;;;;;;;;4991103;28;25057;-65
2024/03/09 06:00:19;;;;;;;45.40;29.60;;;;;;;;;;4989887;28;25099;-64
2024/03/09 06:02:46;;;;;;;50.08;30.13;;;;;;;;;;4999268;28;25108;-65
2024/03/09 06:05:13;;;;;;;46.67;31.42;;;;;;;;;;4993159;28;25064;-65
2024/03/09 06:07:39;;;;;;;48.10;29.65;;;;;;;;;;4996063;28;25183;-65
2024/03/09 06:10:19;;;;;;;48.15;29.70;;;;;;;;;;4991572;28;25057;-65
2024/03/09 06:12:46;;;;;;;51.05;30.65;;;;;;;;;;4998426;28;25064;-63
2024/03/09 06:15:14;;;;;;;47.35;31.55;;;;;;;;;;4989465;28;25070;-67
2024/03/09 06:17:42;;;;;;;50.70;30.13;;;;;;;;;;4995240;28;25099;-65
2024/03/09 06:20:08;;;;;;;47.95;30.40;;;;;;;;;;4988563;28;25138;-64
2024/03/09 06:22:34;;;;;;;45.58;29.50;;;;;;;;;;4997415;28;25150;-64
2024/03/09 06:25:00;;;;;;;47.97;30.02;;;;;;;;;;4989747;28;25065;-63
2024/03/09 06:27:29;;;;;;;44.33;28.27;;;;;;;;;;4990911;28;25112;-64
2024/03/09 06:29:59;;;;;;;48.63;30.15;;;;;;;;;;4995955;28;25068;-64
2024/03/09 06:32:25;;;;;;;52.58;30.17;;;;;;;;;;4997054;28;25064;-64
2024/03/09 06:34:55;;;;;;;42.22;28.15;;;;;;;;;;4993403;28;25089;-63
2024/03/09 06:37:22;;;;;;;45.22;27.65;;;;;;;;;;4995874;28;25102;-64
2024/03/09 06:39:48;;;;;;;45.30;28.75;;;;;;;;;;4992957;28;25095;-64
2024/03/09 06:42:14;;;;;;;44.83;30.30;;;;;;;;;;4996342;28;25073;-66
2024/03/09 06:44:40;;;;;;;43.33;27.85;;;;;;;;;;4973943;28;25078;-65
2024/03/09 06:47:06;;;;;;;45.92;29.95;;;;;;;;;;4997786;28;25097;-64
2024/03/09 06:49:35;;;;;;;45.22;28.90;;;;;;;;;;4994555;28;25056;-63
2024/03/09 06:52:04;;;;;;;45.75;30.35;;;;;;;;;;4995646;28;25115;-63
2024/03/09 06:54:31;;;;;;;44.75;28.10;;;;;;;;;;5005294;28;25122;-66
2024/03/09 06:56:57;;;;;;;48.58;29.70;;;;;;;;;;4997405;28;25069;-63
2024/03/09 06:59:23;;;;;;;44.63;27.95;;;;;;;;;;5007109;28;25155;-64
2024/03/09 07:01:57;;;;;;;45.63;28.17;;;;;;;;;;5005774;28;25053;-64
2024/03/09 07:04:25;;;;;;;45.97;28.73;;;;;;;;;;4995769;28;25145;-64
2024/03/09 07:06:56;;;;;;;42.22;27.70;;;;;;;;;;4999873;28;25058;-65
2024/03/09 07:09:22;;;;;;;45.22;28.90;;;;;;;;;;4995734;28;25099;-64
2024/03/09 07:11:51;;;;;;;47.60;28.23;;;;;;;;;;4999294;28;25121;-63
2024/03/09 07:14:18;;;;;;;41.72;28.20;;;;;;;;;;5003126;28;25096;-64
2024/03/09 07:16:46;;;;;;;44.72;28.33;;;;;;;;;;5001258;28;25060;-64
2024/03/09 07:19:13;;;;;;;45.38;27.83;;;;;;;;;;5002454;28;25048;-64
2024/03/09 07:21:40;;;;;;;42.88;28.15;;;;;;;;;;5005758;28;25076;-64
2024/03/09 07:24:07;;;;;;;41.55;27.13;;;;;;;;;;4993343;28;25118;-64
2024/03/09 07:26:33;;;;;;;49.25;27.95;;;;;;;;;;5002369;28;25091;-67
2024/03/09 07:28:59;;;;;;;45.33;27.88;;;;;;;;;;5009363;28;25055;-65
2024/03/09 07:31:27;;;;;;;44.90;27.50;;;;;;;;;;5019614;28;25051;-66
2024/03/09 07:33:53;;;;;;;42.33;26.55;;;;;;;;;;5016794;28;25054;-64
2024/03/09 07:36:20;;;;;;;39.78;26.95;;;;;;;;;;5022935;28;25063;-63
2024/03/09 07:38:48;;;;;;;42.95;26.90;;;;;;;;;;5015061;28;25085;-64
2024/03/09 07:41:16;;;;;;;40.67;27.27;;;;;;;;;;5006174;28;25076;-64
2024/03/09 07:43:42;;;;;;;37.08;25.80;;;;;;;;;;5001611;28;25083;-64
2024/03/09 07:46:08;;;;;;;40.28;26.67;;;;;;;;;;5001387;28;25445;-65
2024/03/09 07:48:34;;;;;;;40.67;25.83;;;;;;;;;;4999529;28;25127;-65
2024/03/09 07:51:00;;;;;;;38.35;25.58;;;;;;;;;;4989923;28;25074;-63
2024/03/09 07:53:26;;;;;;;39.95;27.02;;;;;;;;;;5001718;28;25041;-67
2024/03/09 07:55:57;;;;;;;38.65;24.55;;;;;;;;;;4995884;28;25078;-63
2024/03/09 07:58:23;;;;;;;41.08;26.42;;;;;;;;;;4999784;28;25048;-64
2024/03/09 08:00:49;;;;;;;37.22;25.35;;;;;;;;;;4997056;28;25082;-64
2024/03/09 08:03:17;;;;;;;38.15;25.25;;;;;;;;;;5000964;28;25131;-65
2024/03/09 08:05:43;;;;;;;37.47;25.15;;;;;;;;;;5001269;28;25084;-64
2024/03/09 08:08:09;;;;;;;37.08;25.08;;;;;;;;;;5001275;28;25121;-65
2024/03/09 08:10:46;;;;;;;40.35;24.52;;;;;;;;;;5002038;28;25087;-64
2024/03/09 08:13:13;;;;;;;40.33;26.80;;;;;;;;;;4997297;28;25093;-64
2024/03/09 08:15:39;;;;;;;37.90;25.77;;;;;;;;;;4998030;28;25092;-63
2024/03/09 08:18:08;;;;;;;35.97;23.95;;;;;;;;;;5002993;28;25072;-65
2024/03/09 08:20:34;;;;;;;35.28;24.00;;;;;;;;;;4994300;28;25043;-65
2024/03/09 08:23:01;;;;;;;35.65;24.50;;;;;;;;;;5001694;28;25095;-65
2024/03/09 08:25:27;;;;;;;34.83;21.85;;;;;;;;;;5004588;28;25088;-65
2024/03/09 08:27:58;;;;;;;35.55;23.33;;;;;;;;;;4993725;28;25156;-65
2024/03/09 08:30:25;;;;;;;32.92;22.92;;;;;;;;;;5000747;28;25051;-64
2024/03/09 08:32:58;;;;;;;36.92;23.00;;;;;;;;;;5002157;28;25079;-65
2024/03/09 08:35:24;;;;;;;32.17;22.17;;;;;;;;;;4999943;28;25053;-64
2024/03/09 08:37:52;;;;;;;33.15;21.60;;;;;;;;;;4992117;28;25065;-66
2024/03/09 08:40:19;;;;;;;32.50;22.73;;;;;;;;;;4999707;28;25091;-65
2024/03/09 08:42:48;;;;;;;31.63;20.70;;;;;;;;;;4999662;28;25189;-64
2024/03/09 08:45:15;;;;;;;29.40;21.10;;;;;;;;;;5002307;28;25063;-64
2024/03/09 08:47:47;;;;;;;33.92;21.23;;;;;;;;;;5002052;28;25063;-65
2024/03/09 08:50:13;;;;;;;28.85;21.10;;;;;;;;;;4998306;28;25061;-65
2024/03/09 08:52:40;;;;;;;36.42;21.75;;;;;;;;;;5006644;28;25145;-64
2024/03/09 08:55:09;;;;;;;30.73;21.42;;;;;;;;;;5002927;28;25058;-64
2024/03/09 08:57:35;;;;;;;30.30;20.02;;;;;;;;;;4997142;28;25047;-66
2024/03/09 09:00:05;;;;;;;28.13;20.17;;;;;;;;;;4993783;28;25048;-63
2024/03/09 09:02:31;;;;;;;29.67;21.52;;;;;;;;;;4999159;28;25051;-65
2024/03/09 09:04:57;;;;;;;29.88;20.90;;;;;;;;;;5002574;28;25058;-66
2024/03/09 09:07:26;;;;;;;32.33;21.15;;;;;;;;;;4998552;28;25062;-64
2024/03/09 09:09:52;;;;;;;33.15;20.17;;;;;;;;;;4996458;28;25081;-65
2024/03/09 09:12:18;;;;;;;29.83;19.75;;;;;;;;;;5002995;28;25051;-65
2024/03/09 09:14:44;;;;;;;27.45;19.50;;;;;;;;;;4993448;28;25469;-65
2024/03/09 09:17:11;;;;;;;26.67;18.85;;;;;;;;;;5000704;28;25123;-64
2024/03/09 09:19:37;;;;;;;25.27;18.65;;;;;;;;;;4998123;28;25130;-65
2024/03/09 09:22:03;;;;;;;29.58;21.75;;;;;;;;;;4999089;28;25057;-65
2024/03/09 09:24:29;;;;;;;25.90;19.00;;;;;;;;;;4999380;28;25067;-65
2024/03/09 09:26:58;;;;;;;25.60;19.30;;;;;;;;;;4997519;28;25137;-65
2024/03/09 09:29:28;;;;;;;28.88;19.08;;;;;;;;;;4999051;28;25110;-65
2024/03/09 09:31:54;;;;;;;27.40;19.02;;;;;;;;;;5002061;28;25062;-64
2024/03/09 09:34:20;;;;;;;27.63;20.10;;;;;;;;;;4995127;28;25077;-64
2024/03/09 09:36:48;;;;;;;27.70;18.77;;;;;;;;;;5002500;28;25160;-65
2024/03/09 09:39:14;;;;;;;24.80;18.27;;;;;;;;;;5036958;28;25072;-66
2024/03/09 09:41:40;;;;;;;22.83;16.58;;;;;;;;;;5024719;28;25078;-64
2024/03/09 09:44:08;;;;;;;21.75;17.35;;;;;;;;;;5021672;28;25053;-66
2024/03/09 09:46:34;;;;;;;24.92;18.52;;;;;;;;;;5013920;28;25100;-65
2024/03/09 09:49:01;;;;;;;26.15;16.95;;;;;;;;;;5001255;28;25100;-66
2024/03/09 09:51:27;;;;;;;22.98;16.83;;;;;;;;;;5003659;28;25056;-65
2024/03/09 09:53:54;;;;;;;23.17;15.95;;;;;;;;;;4992795;28;25052;-65
2024/03/09 09:56:23;;;;;;;21.88;15.65;;;;;;;;;;5002122;28;25095;-65
2024/03/09 09:58:49;;;;;;;23.10;17.65;;;;;;;;;;4997511;28;25073;-66
2024/03/09 10:01:19;;;;;;;21.80;16.58;;;;;;;;;;4995721;28;25114;-67
2024/03/09 10:03:45;;;;;;;22.90;15.32;;;;;;;;;;4998532;28;25167;-65
2024/03/09 10:06:18;;;;;;;21.33;15.68;;;;;;;;;;4999123;28;25066;-65
2024/03/09 10:08:48;;;;;;;28.45;15.90;;;;;;;;;;5001789;28;25056;-65
2024/03/09 10:11:15;;;;;;;24.85;16.55;;;;;;;;;;5004284;28;25079;-66
2024/03/09 10:13:41;;;;;;;24.95;16.33;;;;;;;;;;5002500;28;25073;-64
2024/03/09 10:16:07;;;;;;;26.25;18.17;;;;;;;;;;5007677;28;25049;-66
2024/03/09 10:18:33;;;;;;;23.75;16.48;;;;;;;;;;5024623;28;25054;-65
2024/03/09 10:20:59;;;;;;;30.25;17.92;;;;;;;;;;5002633;28;25066;-64
2024/03/09 10:23:29;;;;;;;26.98;18.38;;;;;;;;;;5002096;28;25079;-66
2024/03/09 10:26:04;;;;;;;22.15;16.83;;;;;;;;;;5003400;28;25043;-65
2024/03/09 10:28:31;;;;;;;25.15;16.92;;;;;;;;;;5003599;28;25055;-63
2024/03/09 10:31:02;;;;;;;21.27;15.93;;;;;;;;;;5004320;28;26219;-63
2024/03/09 10:33:32;;;;;;;22.95;16.40;;;;;;;;;;4998654;28;25107;-65
2024/03/09 10:35:59;;;;;;;23.90;16.70;;;;;;;;;;5002787;28;25078;-65
2024/03/09 10:38:28;;;;;;;23.67;16.67;;;;;;;;;;4996950;28;25070;-65
2024/03/09 10:40:57;;;;;;;23.35;16.38;;;;;;;;;;4999602;28;25140;-64
2024/03/09 10:43:23;;;;;;;20.02;14.88;;;;;;;;;;4994023;28;25065;-65
2024/03/09 10:45:55;;;;;;;21.48;15.88;;;;;;;;;;4999170;28;25189;-65
2024/03/09 10:48:21;;;;;;;21.48;15.07;;;;;;;;;;5004374;28;25067;-66
2024/03/09 10:51:14;;;;;;;21.23;15.35;;;;;;;;;;4994181;28;25070;-64
2024/03/09 10:53:49;;;;;;;20.58;15.63;;;;;;;;;;4994254;28;25064;-66
2024/03/09 10:56:15;;;;;;;21.17;16.00;;;;;;;;;;4999683;28;25049;-65
2024/03/09 10:58:42;;;;;;;21.65;15.88;;;;;;;;;;5007016;28;25122;-64
2024/03/09 11:01:09;;;;;;;24.90;16.73;;;;;;;;;;4999974;28;25139;-67
2024/03/09 11:03:36;;;;;;;24.45;16.55;;;;;;;;;;5001354;28;25066;-66
2024/03/09 11:06:02;;;;;;;22.10;15.82;;;;;;;;;;5000711;28;25159;-64
2024/03/09 11:08:32;;;;;;;21.15;16.58;;;;;;;;;;5000995;28;25061;-65
2024/03/09 11:10:58;;;;;;;21.85;15.85;;;;;;;;;;4999323;28;25050;-65
2024/03/09 11:13:24;;;;;;;23.98;16.80;;;;;;;;;;5007330;28;25067;-64
2024/03/09 11:15:55;;;;;;;23.00;16.50;;;;;;;;;;5026811;28;25071;-66
2024/03/09 11:18:24;;;;;;;22.75;17.02;;;;;;;;;;4998572;28;25073;-64
2024/03/09 11:21:02;;;;;;;22.85;16.92;;;;;;;;;;5000970;28;25092;-64
2024/03/09 11:23:32;;;;;;;23.40;16.92;;;;;;;;;;4999267;28;25121;-62
2024/03/09 11:25:58;;;;;;;19.92;15.30;;;;;;;;;;4997475;28;25077;-64
2024/03/09 11:28:48;;;;;;;23.10;16.02;;;;;;;;;;5001107;28;25090;-63
2024/03/09 11:31:16;;;;;;;24.17;16.00;;;;;;;;;;5003163;28;25060;-62
2024/03/09 11:33:50;;;;;;;22.23;16.98;;;;;;;;;;4999964;28;25163;-63
2024/03/09 11:36:35;;;;;;;26.27;16.10;;;;;;;;;;4998519;28;25091;-63
2024/03/09 11:39:01;;;;;;;21.35;15.27;;;;;;;;;;4995574;28;25141;-62
2024/03/09 11:41:27;;;;;;;25.60;16.33;;;;;;;;;;4997413;28;25074;-63
2024/03/09 11:43:53;;;;;;;20.40;16.67;;;;;;;;;;4995231;28;25051;-64
2024/03/09 11:46:19;;;;;;;21.88;15.45;;;;;;;;;;4996479;28;25070;-64
2024/03/09 11:48:45;;;;;;;24.92;17.55;;;;;;;;;;4996604;28;25072;-63
2024/03/09 11:51:11;;;;;;;21.60;15.63;;;;;;;;;;5003785;28;25093;-63
2024/03/09 11:53:38;;;;;;;20.33;15.43;;;;;;;;;;4991462;28;25057;-65
2024/03/09 11:56:04;;;;;;;25.15;16.08;;;;;;;;;;5002845;28;25058;-63
2024/03/09 11:58:31;;;;;;;24.92;16.52;;;;;;;;;;4998267;28;25076;-66
2024/03/09 12:00:57;;;;;;;23.00;15.10;;;;;;;;;;4999715;28;25109;-64
2024/03/09 12:03:23;;;;;;;23.80;17.50;;;;;;;;;;5003794;28;25066;-63
2024/03/09 12:05:50;;;;;;;22.75;17.10;;;;;;;;;;5007681;28;25143;-64
2024/03/09 12:08:16;;;;;;;22.00;16.30;;;;;;;;;;5015716;28;25074;-63
2024/03/09 12:10:42;;;;;;;20.30;15.50;;;;;;;;;;4997357;28;25053;-65
2024/03/09 12:13:09;;;;;;;20.58;15.15;;;;;;;;;;4996792;28;25060;-62
2024/03/09 12:15:35;;;;;;;21.45;14.95;;;;;;;;;;5000909;28;25061;-62
2024/03/09 12:18:03;;;;;;;21.02;16.77;;;;;;;;;;5002309;28;25080;-65
2024/03/09 12:20:29;;;;;;;23.30;16.77;;;;;;;;;;4998843;28;25051;-63
2024/03/09 12:22:55;;;;;;;21.63;16.80;;;;;;;;;;4999302;28;25082;-64
2024/03/09 12:25:22;;;;;;;28.92;18.38;;;;;;;;;;5002185;28;25072;-64
2024/03/09 12:27:50;;;;;;;23.55;15.75;;;;;;;;;;4997122;28;25100;-63
2024/03/09 12:30:16;;;;;;;23.15;16.90;;;;;;;;;;5000153;28;25080;-65
2024/03/09 12:32:42;;;;;;;20.77;15.38;;;;;;;;;;5000895;28;25059;-63
2024/03/09 12:35:13;;;;;;;22.20;14.80;;;;;;;;;;4991976;28;25081;-63
2024/03/09 12:37:39;;;;;;;22.08;16.17;;;;;;;;;;5003389;28;25069;-64
2024/03/09 12:40:10;;;;;;;19.30;15.60;;;;;;;;;;4999270;28;25066;-65
2024/03/09 12:42:42;;;;;;;25.83;16.83;;;;;;;;;;4998011;28;25080;-65
2024/03/09 12:45:08;;;;;;;23.35;17.05;;;;;;;;;;5023843;28;25095;-63
2024/03/09 12:47:34;;;;;;;24.90;16.67;;;;;;;;;;5006650;28;25056;-63
2024/03/09 12:50:02;;;;;;;20.63;15.32;;;;;;;;;;5011993;28;25063;-64
2024/03/09 12:52:28;;;;;;;21.98;15.80;;;;;;;;;;5012250;28;25066;-63
2024/03/09 12:54:55;;;;;;;21.58;14.88;;;;;;;;;;5014407;28;25110;-65
2024/03/09 12:57:23;;;;;;;26.60;17.25;;;;;;;;;;5013885;28;25051;-65
2024/03/09 12:59:50;;;;;;;24.23;16.92;;;;;;;;;;5022483;28;25062;-62
2024/03/09 13:02:16;;;;;;;23.98;15.80;;;;;;;;;;5020830;28;25131;-64
2024/03/09 13:04:42;;;;;;;22.20;15.13;;;;;;;;;;5010455;28;25141;-62
2024/03/09 13:07:14;;;;;;;21.83;15.50;;;;;;;;;;5015033;28;25080;-63
2024/03/09 13:09:40;;;;;;;23.17;15.90;;;;;;;;;;5017311;28;25060;-65
2024/03/09 13:12:06;;;;;;;23.65;15.68;;;;;;;;;;5015143;28;25097;-65
2024/03/09 13:14:36;;;;;;;20.65;15.30;;;;;;;;;;5009811;28;25067;-64
2024/03/09 13:17:05;;;;;;;20.58;14.80;;;;;;;;;;5016970;28;25076;-63
2024/03/09 13:19:33;;;;;;;20.75;15.50;;;;;;;;;;5019678;28;25063;-62
2024/03/09 13:21:59;;;;;;;20.17;15.40;;;;;;;;;;5013435;28;25083;-63
2024/03/09 13:24:25;;;;;;;26.02;17.33;;;;;;;;;;5019944;28;25153;-64
2024/03/09 13:26:51;;;;;;;20.50;16.08;;;;;;;;;;5018417;28;25065;-63
2024/03/09 13:29:17;;;;;;;20.88;14.23;;;;;;;;;;5022083;28;25054;-63
2024/03/09 13:31:45;;;;;;;26.27;15.60;;;;;;;;;;5015349;28;25089;-64
2024/03/09 13:34:14;;;;;;;22.83;15.35;;;;;;;;;;5010984;28;25111;-64
2024/03/09 13:36:41;;;;;;;20.20;15.38;;;;;;;;;;5017666;28;25073;-63
2024/03/09 13:39:16;;;;;;;21.98;15.88;;;;;;;;;;5005652;28;25069;-63
2024/03/09 13:41:45;;;;;;;20.33;15.15;;;;;;;;;;5017944;28;25150;-63
2024/03/09 13:44:12;;;;;;;19.60;14.68;;;;;;;;;;5011689;28;25062;-64
2024/03/09 13:46:38;;;;;;;24.00;15.57;;;;;;;;;;5030028;28;25043;-64
2024/03/09 13:49:10;;;;;;;21.77;15.02;;;;;;;;;;5013291;28;25115;-64
2024/03/09 13:51:36;;;;;;;24.30;14.65;;;;;;;;;;5015699;28;25050;-65
2024/03/09 13:54:04;;;;;;;22.17;14.90;;;;;;;;;;5009853;28;25072;-67
2024/03/09 13:56:30;;;;;;;20.33;13.85;;;;;;;;;;5008085;28;25147;-65
2024/03/09 13:58:56;;;;;;;18.95;14.55;;;;;;;;;;5019842;28;25161;-65
2024/03/09 14:01:22;;;;;;;19.58;14.98;;;;;;;;;;5016036;28;25074;-67
2024/03/09 14:03:49;;;;;;;19.75;14.93;;;;;;;;;;5014151;28;25148;-65
2024/03/09 14:06:19;;;;;;;19.20;14.55;;;;;;;;;;5013315;28;25076;-65
2024/03/09 14:08:45;;;;;;;25.30;14.70;;;;;;;;;;5006152;28;25054;-67
2024/03/09 14:11:18;;;;;;;20.33;14.80;;;;;;;;;;5012164;28;25067;-68
2024/03/09 14:13:44;;;;;;;18.63;14.65;;;;;;;;;;5009784;28;25056;-65
2024/03/09 14:16:13;;;;;;;21.50;15.80;;;;;;;;;;5020047;28;25074;-64
2024/03/09 14:18:41;;;;;;;19.27;13.45;;;;;;;;;;5037753;28;25075;-66
2024/03/09 14:21:08;;;;;;;19.45;13.98;;;;;;;;;;5031905;28;25096;-67
2024/03/09 14:23:38;;;;;;;22.60;14.57;;;;;;;;;;5029750;28;25085;-67